createdAt,value
2022-10-17T00:00:32.028Z,15.01
2022-10-17T00:01:32.248Z,15.01
2022-10-17T00:02:32.016Z,15.01
2022-10-17T00:03:32.282Z,14.95
2022-10-17T00:05:32.007Z,15.01
2022-10-17T00:06:31.724Z,15.01
2022-10-17T00:07:32.666Z,14.98
2022-10-17T00:08:31.707Z,15.01
2022-10-17T00:09:31.955Z,15.04
2022-10-17T00:10:32.249Z,14.97
2022-10-17T00:11:31.943Z,14.93
2022-10-17T00:12:31.933Z,14.97
2022-10-17T00:14:31.659Z,14.98
2022-10-17T00:15:32.173Z,14.9
2022-10-17T00:16:32.154Z,14.94
2022-10-17T00:17:32.940Z,14.89
2022-10-17T00:18:31.887Z,14.82
2022-10-17T00:19:32.167Z,14.85
2022-10-17T00:20:31.890Z,14.9
2022-10-17T00:21:31.887Z,14.82
2022-10-17T00:22:32.046Z,14.86
2022-10-17T00:23:32.103Z,14.82
2022-10-17T00:24:32.093Z,14.85
2022-10-17T00:25:31.828Z,14.8
2022-10-17T00:26:32.578Z,14.79
2022-10-17T00:27:32.806Z,14.79
2022-10-17T00:28:32.009Z,14.83
2022-10-17T00:29:32.064Z,14.85
2022-10-17T00:30:32.043Z,14.8
2022-10-17T00:31:32.068Z,14.86
2022-10-17T00:32:32.484Z,14.83
2022-10-17T00:33:32.015Z,14.85
2022-10-17T00:34:31.758Z,14.86
2022-10-17T00:35:31.778Z,14.85
2022-10-17T00:36:31.765Z,14.79
2022-10-17T00:37:32.015Z,14.8
2022-10-17T00:38:31.739Z,14.79
2022-10-17T00:39:31.724Z,14.79
2022-10-17T00:40:31.447Z,14.87
2022-10-17T00:41:31.696Z,14.83
2022-10-17T00:42:32.533Z,14.85
2022-10-17T00:43:31.938Z,14.83
2022-10-17T00:44:31.670Z,14.82
2022-10-17T00:45:31.926Z,14.85
2022-10-17T00:46:31.658Z,14.71
2022-10-17T00:47:31.901Z,14.8
2022-10-17T00:48:31.645Z,14.71
2022-10-17T00:49:31.891Z,14.74
2022-10-17T00:50:31.366Z,14.71
2022-10-17T00:51:31.642Z,14.7
2022-10-17T00:52:33.227Z,14.71
2022-10-17T00:53:31.903Z,14.74
2022-10-17T00:54:31.617Z,14.64
2022-10-17T00:55:31.599Z,14.7
2022-10-17T00:56:31.574Z,14.69
2022-10-17T00:57:31.398Z,14.69
2022-10-17T00:58:31.819Z,14.75
2022-10-17T00:59:31.552Z,14.7
2022-10-17T01:00:31.540Z,14.63
2022-10-17T01:01:31.534Z,14.63
2022-10-17T01:02:32.436Z,14.7
2022-10-17T01:03:31.517Z,14.63
2022-10-17T01:04:31.502Z,14.63
2022-10-17T01:05:31.506Z,14.63
2022-10-17T01:06:31.493Z,14.64
2022-10-17T01:07:37.282Z,14.69
2022-10-17T01:08:31.755Z,14.66
2022-10-17T01:09:31.489Z,14.74
2022-10-17T01:10:31.472Z,14.8
2022-10-17T01:11:31.203Z,14.71
2022-10-17T01:12:32.299Z,14.8
2022-10-17T01:13:31.432Z,14.71
2022-10-17T01:14:31.431Z,14.82
2022-10-17T01:15:31.423Z,14.8
2022-10-17T01:16:31.158Z,14.83
2022-10-17T01:17:31.655Z,14.71
2022-10-17T01:18:31.399Z,14.66
2022-10-17T01:19:31.403Z,14.79
2022-10-17T01:20:31.117Z,14.63
2022-10-17T01:21:31.106Z,14.66
2022-10-17T01:22:32.297Z,14.7
2022-10-17T01:23:31.143Z,14.67
2022-10-17T01:24:31.379Z,14.61
2022-10-17T01:25:31.610Z,14.63
2022-10-17T01:26:31.330Z,14.57
2022-10-17T01:27:31.580Z,14.57
2022-10-17T01:28:31.902Z,14.51
2022-10-17T01:29:31.047Z,14.51
2022-10-17T01:30:31.305Z,14.59
2022-10-17T01:31:31.039Z,14.49
2022-10-17T01:32:32.520Z,14.51
2022-10-17T01:34:31.006Z,14.51
2022-10-17T01:35:31.257Z,14.45
2022-10-17T01:36:31.003Z,14.56
2022-10-17T01:37:31.239Z,14.46
2022-10-17T01:38:31.501Z,14.46
2022-10-17T01:39:38.407Z,14.49
2022-10-17T01:40:31.228Z,14.49
2022-10-17T01:41:31.478Z,14.52
2022-10-17T01:42:32.589Z,14.45
2022-10-17T01:43:31.446Z,14.51
2022-10-17T01:44:31.179Z,14.49
2022-10-17T01:45:31.178Z,14.46
2022-10-17T01:46:31.162Z,14.44
2022-10-17T01:47:32.001Z,14.38
2022-10-17T01:48:31.429Z,14.27
2022-10-17T01:49:31.406Z,14.31
2022-10-17T01:50:31.136Z,14.33
2022-10-17T01:51:31.122Z,14.27
2022-10-17T01:52:31.393Z,14.27
2022-10-17T01:53:31.366Z,14.31
2022-10-17T01:54:31.350Z,14.27
2022-10-17T01:55:30.862Z,14.27
2022-10-17T01:56:31.119Z,14.3
2022-10-17T01:57:32.313Z,14.39
2022-10-17T01:58:31.068Z,14.3
2022-10-17T01:59:30.807Z,14.31
2022-10-17T02:00:31.310Z,14.44
2022-10-17T02:01:31.276Z,14.42
2022-10-17T02:02:30.771Z,14.39
2022-10-17T02:03:30.762Z,14.36
2022-10-17T02:04:31.013Z,14.36
2022-10-17T02:05:31.004Z,14.33
2022-10-17T02:06:31.255Z,14.34
2022-10-17T02:07:32.062Z,14.44
2022-10-17T02:08:30.998Z,14.39
2022-10-17T02:09:30.973Z,14.3
2022-10-17T02:10:30.955Z,14.34
2022-10-17T02:11:31.235Z,14.27
2022-10-17T02:12:31.237Z,14.28
2022-10-17T02:13:31.223Z,14.28
2022-10-17T02:14:30.938Z,14.28
2022-10-17T02:15:30.917Z,14.3
2022-10-17T02:16:30.910Z,14.36
2022-10-17T02:17:31.885Z,14.34
2022-10-17T02:18:30.886Z,14.41
2022-10-17T02:19:31.138Z,14.34
2022-10-17T02:20:30.615Z,14.34
2022-10-17T02:21:31.124Z,14.34
2022-10-17T02:22:31.113Z,14.38
2022-10-17T02:23:31.232Z,14.24
2022-10-17T02:24:30.589Z,14.34
2022-10-17T02:25:30.833Z,14.27
2022-10-17T02:26:30.825Z,14.3
2022-10-17T02:27:32.332Z,14.38
2022-10-17T02:28:30.994Z,14.34
2022-10-17T02:29:31.082Z,14.34
2022-10-17T02:30:30.786Z,14.3
2022-10-17T02:31:30.788Z,14.36
2022-10-17T02:32:30.533Z,14.34
2022-10-17T02:33:30.766Z,14.27
2022-10-17T02:34:30.753Z,14.31
2022-10-17T02:35:30.491Z,14.26
2022-10-17T02:36:30.745Z,14.24
2022-10-17T02:37:31.784Z,14.24
2022-10-17T02:38:30.458Z,14.26
2022-10-17T02:39:30.707Z,14.31
2022-10-17T02:40:30.967Z,14.28
2022-10-17T02:41:31.596Z,14.3
2022-10-17T02:42:31.949Z,14.3
2022-10-17T02:43:30.705Z,14.31
2022-10-17T02:44:30.706Z,14.3
2022-10-17T02:45:30.693Z,14.27
2022-10-17T02:46:30.911Z,14.23
2022-10-17T02:47:30.640Z,14.26
2022-10-17T02:48:30.636Z,14.24
2022-10-17T02:49:30.887Z,14.3
2022-10-17T02:50:30.442Z,14.3
2022-10-17T02:51:30.864Z,14.33
2022-10-17T02:52:31.471Z,14.3
2022-10-17T02:53:30.596Z,14.33
2022-10-17T02:54:30.592Z,14.28
2022-10-17T02:55:30.572Z,14.26
2022-10-17T02:56:30.567Z,14.3
2022-10-17T02:57:30.303Z,14.24
2022-10-17T02:58:30.305Z,14.19
2022-10-17T02:59:30.775Z,14.2
2022-10-17T03:00:30.549Z,14.24
2022-10-17T03:01:31.109Z,14.21
2022-10-17T03:02:31.316Z,14.27
2022-10-17T03:03:30.508Z,14.23
2022-10-17T03:04:30.495Z,14.34
2022-10-17T03:05:30.243Z,14.28
2022-10-17T03:06:30.493Z,14.31
2022-10-17T03:07:30.466Z,14.34
2022-10-17T03:08:30.955Z,14.33
2022-10-17T03:09:30.199Z,14.36
2022-10-17T03:10:30.446Z,14.26
2022-10-17T03:11:30.436Z,14.28
2022-10-17T03:12:30.889Z,14.23
2022-10-17T03:13:30.672Z,14.23
2022-10-17T03:14:30.414Z,14.26
2022-10-17T03:15:30.429Z,14.31
2022-10-17T03:16:30.669Z,14.3
2022-10-17T03:17:30.416Z,14.3
2022-10-17T03:18:30.397Z,14.33
2022-10-17T03:19:30.363Z,14.34
2022-10-17T03:20:30.357Z,14.31
2022-10-17T03:21:30.353Z,14.36
2022-10-17T03:22:31.143Z,14.3
2022-10-17T03:23:30.589Z,14.27
2022-10-17T03:24:30.587Z,14.3
2022-10-17T03:25:30.319Z,14.31
2022-10-17T03:26:30.049Z,14.24
2022-10-17T03:27:31.245Z,14.2
2022-10-17T03:28:30.450Z,14.12
2022-10-17T03:29:30.542Z,14.12
2022-10-17T03:30:30.294Z,14.09
2022-10-17T03:31:30.555Z,14.2
2022-10-17T03:32:30.536Z,14.19
2022-10-17T03:49:38.905Z,13.94
2022-10-17T03:50:38.808Z,13.93
2022-10-17T03:51:38.282Z,13.87
2022-10-17T03:52:38.785Z,13.79
2022-10-17T03:53:38.266Z,13.81
2022-10-17T03:54:38.508Z,13.78
2022-10-17T03:55:38.754Z,13.73
2022-10-17T03:56:38.735Z,13.83
2022-10-17T03:57:40.206Z,13.88
2022-10-17T03:58:38.719Z,13.84
2022-10-17T03:59:38.193Z,13.84
2022-10-17T04:00:38.185Z,13.76
2022-10-17T04:01:38.476Z,13.79
2022-10-17T04:02:38.682Z,13.73
2022-10-17T04:03:38.674Z,13.72
2022-10-17T04:04:38.655Z,13.69
2022-10-17T04:05:38.723Z,13.6
2022-10-17T04:06:38.382Z,13.58
2022-10-17T04:07:38.631Z,13.54
2022-10-17T04:08:38.335Z,13.68
2022-10-17T04:09:38.581Z,13.68
2022-10-17T04:10:38.834Z,13.7
2022-10-17T04:11:38.569Z,13.6
2022-10-17T04:12:38.309Z,13.65
2022-10-17T04:13:38.557Z,13.69
2022-10-17T04:14:38.796Z,13.69
2022-10-17T04:15:38.782Z,13.72
2022-10-17T04:16:38.779Z,13.75
2022-10-17T04:17:42.975Z,13.93
2022-10-17T04:18:38.502Z,13.97
2022-10-17T04:19:38.489Z,13.93
2022-10-17T04:20:38.743Z,13.81
2022-10-17T04:21:38.801Z,13.87
2022-10-17T04:22:38.207Z,13.88
2022-10-17T04:23:38.703Z,13.84
2022-10-17T04:24:38.447Z,13.81
2022-10-17T04:25:41.539Z,13.87
2022-10-17T04:26:38.423Z,13.86
2022-10-17T04:27:38.421Z,13.95
2022-10-17T04:29:38.404Z,13.93
2022-10-17T04:30:40.054Z,14.02
2022-10-17T04:31:38.374Z,14.08
2022-10-17T04:32:38.637Z,14.08
2022-10-17T04:33:38.365Z,14.08
2022-10-17T04:34:38.612Z,14.12
2022-10-17T04:35:38.349Z,14.19
2022-10-17T04:36:38.340Z,14.05
2022-10-17T04:37:38.665Z,14.12
2022-10-17T04:38:38.326Z,14.2
2022-10-17T04:39:38.304Z,14.09
2022-10-17T04:40:38.560Z,14.21
2022-10-17T04:41:38.552Z,14.11
2022-10-17T04:42:38.294Z,14.08
2022-10-17T04:43:38.278Z,14.15
2022-10-17T04:44:38.274Z,14.11
2022-10-17T04:45:38.516Z,14.09
2022-10-17T04:46:38.251Z,14.16
2022-10-17T04:47:38.577Z,14.11
2022-10-17T04:48:38.557Z,14.15
2022-10-17T04:49:38.428Z,14.16
2022-10-17T04:50:38.290Z,14.11
2022-10-17T04:51:38.021Z,14.09
2022-10-17T04:52:38.524Z,14.08
2022-10-17T04:53:38.583Z,14.08
2022-10-17T04:54:38.508Z,14.08
2022-10-17T04:55:38.240Z,14.02
2022-10-17T04:56:37.976Z,13.95
2022-10-17T04:57:38.476Z,13.95
2022-10-17T04:58:37.965Z,13.9
2022-10-17T04:59:38.203Z,13.94
2022-10-17T05:00:38.197Z,13.94
2022-10-17T05:01:38.456Z,13.91
2022-10-17T05:02:38.438Z,13.97
2022-10-17T05:03:38.462Z,13.99
2022-10-17T05:04:37.909Z,14.05
2022-10-17T05:05:38.403Z,14.08
2022-10-17T05:06:38.442Z,14.09
2022-10-17T05:07:38.396Z,14.08
2022-10-17T05:08:38.131Z,14.09
2022-10-17T05:09:38.472Z,14.08
2022-10-17T05:10:38.112Z,14.08
2022-10-17T05:11:38.117Z,14.06
2022-10-17T05:12:38.091Z,14.11
2022-10-17T05:13:38.087Z,14.12
2022-10-17T05:14:38.077Z,14.02
2022-10-17T05:15:38.061Z,14.06
2022-10-17T05:16:37.799Z,14.11
2022-10-17T05:17:38.304Z,14.13
2022-10-17T05:18:38.043Z,14.05
2022-10-17T05:19:38.030Z,14.08
2022-10-17T05:20:38.031Z,14.06
2022-10-17T05:21:38.006Z,14.12
2022-10-17T05:22:44.553Z,14.06
2022-10-17T05:23:38.248Z,14.11
2022-10-17T05:24:37.985Z,14.12
2022-10-17T05:25:38.421Z,14.03
2022-10-17T05:26:37.711Z,14.11
2022-10-17T05:27:38.220Z,13.97
2022-10-17T05:28:38.101Z,14.06
2022-10-17T05:29:37.939Z,14.06
2022-10-17T05:30:41.595Z,14.09
2022-10-17T05:31:38.195Z,14.09
2022-10-17T05:32:37.660Z,14.09
2022-10-17T05:33:38.156Z,14.09
2022-10-17T05:34:37.667Z,13.94
2022-10-17T05:35:37.631Z,14.08
2022-10-17T05:36:38.129Z,14.05
2022-10-17T05:37:37.873Z,14.05
2022-10-17T05:38:38.119Z,14.08
2022-10-17T05:39:38.108Z,14.01
2022-10-17T05:40:37.847Z,13.97
2022-10-17T05:41:38.160Z,13.93
2022-10-17T05:43:37.565Z,13.91
2022-10-17T05:44:37.812Z,13.88
2022-10-17T05:45:37.803Z,13.94
2022-10-17T05:46:37.786Z,13.88
2022-10-17T05:47:38.003Z,13.91
2022-10-17T05:48:37.522Z,13.86
2022-10-17T05:49:54.922Z,13.84
2022-10-17T05:50:37.752Z,13.87
2022-10-17T05:52:37.968Z,13.83
2022-10-17T05:53:37.730Z,13.79
2022-10-17T05:54:37.726Z,13.84
2022-10-17T05:55:37.456Z,13.87
2022-10-17T05:56:37.963Z,13.94
2022-10-17T05:57:38.042Z,13.94
2022-10-17T05:59:00.980Z,14.03
2022-10-17T05:59:37.679Z,13.97
2022-10-17T06:00:37.896Z,13.94
2022-10-17T06:01:37.875Z,13.99
2022-10-17T06:02:38.204Z,14.06
2022-10-17T06:03:37.651Z,14.01
2022-10-17T06:04:37.373Z,13.94
2022-10-17T06:05:37.621Z,14.09
2022-10-17T06:06:37.624Z,13.95
2022-10-17T06:07:37.867Z,14.01
2022-10-17T06:08:37.848Z,13.95
2022-10-17T06:09:38.010Z,13.94
2022-10-17T06:10:37.322Z,13.93
2022-10-17T06:11:37.828Z,13.95
2022-10-17T06:12:37.307Z,13.94
2022-10-17T06:13:37.883Z,13.94
2022-10-17T06:14:37.537Z,13.97
2022-10-17T06:15:37.278Z,13.95
2022-10-17T06:16:37.577Z,13.97
2022-10-17T06:17:37.522Z,13.94
2022-10-17T06:18:37.714Z,14.12
2022-10-17T06:19:37.758Z,14.16
2022-10-17T06:20:38.131Z,14.11
2022-10-17T06:21:37.224Z,14.13
2022-10-17T06:22:37.216Z,14.15
2022-10-17T06:23:37.725Z,14.13
2022-10-17T06:24:37.467Z,14.28
2022-10-17T06:25:37.444Z,14.24
2022-10-17T06:26:37.174Z,14.27
2022-10-17T06:27:37.695Z,14.12
2022-10-17T06:28:37.642Z,14.19
2022-10-17T06:29:37.749Z,14.16
2022-10-17T06:30:37.402Z,14.24
2022-10-17T06:31:37.134Z,14.28
2022-10-17T06:32:37.410Z,14.38
2022-10-17T06:33:37.636Z,14.44
2022-10-17T06:34:37.366Z,14.46
2022-10-17T06:35:37.098Z,14.45
2022-10-17T06:36:37.346Z,14.63
2022-10-17T06:37:41.928Z,14.69
2022-10-17T06:38:37.590Z,14.69
2022-10-17T06:39:37.076Z,14.7
2022-10-17T06:40:37.582Z,14.83
2022-10-17T06:41:37.059Z,14.79
2022-10-17T06:42:37.050Z,14.83
2022-10-17T06:43:37.287Z,14.93
2022-10-17T06:44:37.025Z,14.95
2022-10-17T06:45:37.609Z,15
2022-10-17T06:46:37.009Z,15.05
2022-10-17T06:47:37.820Z,15.01
2022-10-17T06:48:37.256Z,15.05
2022-10-17T06:49:37.244Z,15.07
2022-10-17T06:50:37.485Z,15.13
2022-10-17T06:51:37.485Z,15.13
2022-10-17T06:52:37.478Z,15.2
2022-10-17T06:53:37.463Z,15.1
2022-10-17T06:54:36.939Z,15.23
2022-10-17T06:55:37.197Z,15.37
2022-10-17T06:56:37.204Z,15.33
2022-10-17T06:57:37.076Z,15.31
2022-10-17T06:58:36.909Z,15.38
2022-10-17T06:59:37.160Z,15.4
2022-10-17T07:00:37.520Z,15.45
2022-10-17T07:01:37.686Z,15.51
2022-10-17T07:02:37.531Z,15.51
2022-10-17T07:03:37.119Z,15.56
2022-10-17T07:04:37.375Z,15.65
2022-10-17T07:05:36.857Z,15.7
2022-10-17T07:06:37.358Z,15.75
2022-10-17T07:07:38.933Z,15.73
2022-10-17T07:08:37.341Z,15.88
2022-10-17T07:09:37.082Z,15.89
2022-10-17T07:10:37.070Z,15.98
2022-10-17T07:11:37.316Z,16.04
2022-10-17T07:12:37.059Z,15.89
2022-10-17T07:13:42.652Z,15.99
2022-10-17T07:14:37.293Z,16.06
2022-10-17T07:15:37.287Z,16.1
2022-10-17T07:16:37.031Z,16.18
2022-10-17T07:17:37.601Z,16.21
2022-10-17T07:18:37.260Z,16.25
2022-10-17T07:19:37.265Z,16.29
2022-10-17T07:20:37.000Z,16.3
2022-10-17T07:21:41.937Z,16.29
2022-10-17T07:22:36.983Z,16.3
2022-10-17T07:23:36.717Z,16.4
2022-10-17T07:24:37.258Z,16.45
2022-10-17T07:25:42.664Z,16.4
2022-10-17T07:26:37.207Z,16.45
2022-10-17T07:27:36.999Z,16.42
2022-10-17T07:28:37.095Z,16.47
2022-10-17T07:29:37.193Z,16.51
2022-10-17T07:30:37.180Z,16.67
2022-10-17T07:31:37.182Z,16.55
2022-10-17T07:32:37.171Z,16.65
2022-10-17T07:33:37.376Z,16.67
2022-10-17T07:34:37.168Z,16.72
2022-10-17T07:35:37.150Z,16.77
2022-10-17T07:36:37.143Z,16.82
2022-10-17T07:37:37.011Z,16.88
2022-10-17T07:38:36.870Z,16.87
2022-10-17T07:39:36.861Z,16.81
2022-10-17T07:40:37.119Z,16.85
2022-10-17T07:41:37.105Z,16.85
2022-10-17T07:43:36.845Z,16.91
2022-10-17T07:44:36.822Z,16.95
2022-10-17T07:45:36.565Z,16.94
2022-10-17T07:46:36.813Z,16.85
2022-10-17T07:47:37.342Z,16.94
2022-10-17T07:48:37.061Z,16.92
2022-10-17T07:49:37.149Z,16.94
2022-10-17T07:50:36.787Z,16.87
2022-10-17T07:51:36.894Z,16.95
2022-10-17T07:52:37.176Z,16.95
2022-10-17T07:53:36.773Z,16.94
2022-10-17T07:54:36.762Z,16.94
2022-10-17T07:55:37.037Z,16.95
2022-10-17T07:56:36.749Z,16.97
2022-10-17T07:57:36.996Z,16.91
2022-10-17T07:58:36.740Z,16.99
2022-10-17T07:59:36.734Z,16.99
2022-10-17T08:00:37.049Z,16.97
2022-10-17T08:01:36.739Z,16.94
2022-10-17T08:02:37.263Z,17.07
2022-10-17T08:03:36.705Z,17.07
2022-10-17T08:04:36.968Z,17.1
2022-10-17T08:05:37.053Z,17.03
2022-10-17T08:06:36.692Z,17.03
2022-10-17T08:07:36.684Z,17.09
2022-10-17T08:08:36.960Z,17.1
2022-10-17T08:09:36.418Z,17.05
2022-10-17T08:10:36.921Z,17.03
2022-10-17T08:11:36.901Z,17.07
2022-10-17T08:12:37.502Z,17.1
2022-10-17T08:13:36.634Z,17.09
2022-10-17T08:14:36.641Z,17.09
2022-10-17T08:15:37.059Z,17.09
2022-10-17T08:16:36.878Z,16.92
2022-10-17T08:17:36.871Z,16.94
2022-10-17T08:18:36.616Z,17.09
2022-10-17T08:19:36.863Z,17.03
2022-10-17T08:20:36.855Z,16.95
2022-10-17T08:21:36.928Z,16.94
2022-10-17T08:22:37.387Z,16.94
2022-10-17T08:23:36.831Z,16.87
2022-10-17T08:24:36.823Z,16.87
2022-10-17T08:25:36.867Z,16.95
2022-10-17T08:26:39.208Z,16.94
2022-10-17T08:27:36.804Z,16.81
2022-10-17T08:28:37.045Z,16.92
2022-10-17T08:29:36.798Z,16.95
2022-10-17T08:30:36.787Z,16.92
2022-10-17T08:31:36.796Z,16.92
2022-10-17T08:32:37.059Z,16.99
2022-10-17T08:33:36.549Z,17.09
2022-10-17T08:34:36.911Z,17.09
2022-10-17T08:35:36.749Z,17.07
2022-10-17T08:36:36.553Z,17.07
2022-10-17T08:37:37.447Z,17.15
2022-10-17T08:38:47.025Z,17.18
2022-10-17T08:39:36.471Z,17.21
2022-10-17T08:40:36.208Z,17.22
2022-10-17T08:41:36.209Z,17.28
2022-10-17T08:42:36.480Z,17.27
2022-10-17T08:43:39.771Z,17.22
2022-10-17T08:44:36.186Z,17.43
2022-10-17T08:45:36.690Z,17.45
2022-10-17T08:46:36.518Z,17.55
2022-10-17T08:47:37.348Z,17.5
2022-10-17T08:48:36.694Z,17.63
2022-10-17T08:49:36.416Z,17.73
2022-10-17T08:50:36.406Z,17.79
2022-10-17T08:51:36.397Z,17.83
2022-10-17T08:52:36.648Z,17.9
2022-10-17T08:53:36.729Z,17.95
2022-10-17T08:54:36.405Z,18.02
2022-10-17T08:55:37.034Z,17.95
2022-10-17T08:57:06.357Z,18.06
2022-10-17T08:57:37.140Z,18.01
2022-10-17T08:58:36.360Z,18.02
2022-10-17T08:59:36.390Z,18.16
2022-10-17T09:00:36.083Z,18.21
2022-10-17T09:01:36.345Z,18.31
2022-10-17T09:02:36.596Z,18.34
2022-10-17T09:03:36.710Z,18.44
2022-10-17T09:04:36.325Z,18.47
2022-10-17T09:05:36.568Z,18.5
2022-10-17T09:06:36.581Z,18.53
2022-10-17T09:07:37.128Z,18.66
2022-10-17T09:08:36.555Z,18.65
2022-10-17T09:09:36.630Z,18.65
2022-10-17T09:10:36.544Z,18.63
2022-10-17T09:11:36.545Z,18.69
2022-10-17T09:12:36.367Z,18.65
2022-10-17T09:14:36.267Z,18.69
2022-10-17T09:15:36.009Z,18.65
2022-10-17T09:16:36.715Z,18.61
2022-10-17T09:17:36.580Z,18.69
2022-10-17T09:18:36.498Z,18.66
2022-10-17T09:19:36.508Z,18.61
2022-10-17T09:20:36.233Z,18.63
2022-10-17T09:21:36.492Z,18.57
2022-10-17T09:22:36.226Z,18.65
2022-10-17T09:23:39.081Z,18.78
2022-10-17T09:24:36.205Z,18.68
2022-10-17T09:25:36.552Z,18.76
2022-10-17T09:26:36.561Z,18.82
2022-10-17T09:27:36.819Z,18.78
2022-10-17T09:28:36.403Z,18.81
2022-10-17T09:29:46.341Z,18.81
2022-10-17T09:30:51.763Z,18.94
2022-10-17T09:31:35.943Z,18.87
2022-10-17T09:32:36.536Z,18.94
2022-10-17T09:33:57.928Z,19.07
2022-10-17T09:34:36.157Z,19.1
2022-10-17T09:35:35.906Z,19.1
2022-10-17T09:36:36.190Z,19.19
2022-10-17T09:37:36.147Z,19.17
2022-10-17T09:38:36.397Z,19.17
2022-10-17T09:39:35.899Z,19.27
2022-10-17T09:40:36.390Z,19.25
2022-10-17T09:41:50.306Z,19.23
2022-10-17T09:42:37.312Z,19.32
2022-10-17T09:43:36.977Z,19.34
2022-10-17T09:44:36.968Z,19.46
2022-10-17T09:45:36.959Z,19.43
2022-10-17T09:46:36.813Z,19.47
2022-10-17T09:47:36.442Z,19.52
2022-10-17T09:48:36.693Z,19.53
2022-10-17T09:49:36.691Z,19.6
2022-10-17T09:50:36.430Z,19.56
2022-10-17T09:51:36.722Z,19.78
2022-10-17T09:52:37.474Z,19.78
2022-10-17T09:53:36.915Z,19.83
2022-10-17T09:54:36.919Z,19.93
2022-10-17T09:55:36.916Z,20.05
2022-10-17T09:56:36.810Z,20.02
2022-10-17T09:57:36.972Z,20.23
2022-10-17T09:58:36.907Z,20.3
2022-10-17T09:59:36.643Z,20.4
2022-10-17T10:00:37.161Z,20.42
2022-10-17T10:01:36.647Z,20.63
2022-10-17T10:02:37.621Z,20.71
2022-10-17T10:03:36.876Z,20.81
2022-10-17T10:05:07.194Z,21.01
2022-10-17T10:05:36.617Z,21.08
2022-10-17T10:06:36.966Z,21.12
2022-10-17T10:07:36.871Z,21.15
2022-10-17T10:08:36.882Z,21.19
2022-10-17T10:09:41.891Z,21.28
2022-10-17T10:10:36.592Z,21.37
2022-10-17T10:11:36.593Z,21.41
2022-10-17T10:12:37.080Z,21.48
2022-10-17T10:13:37.000Z,21.55
2022-10-17T10:14:36.576Z,21.61
2022-10-17T10:15:36.590Z,21.7
2022-10-17T10:16:36.663Z,21.74
2022-10-17T10:17:36.308Z,21.73
2022-10-17T10:18:36.748Z,21.89
2022-10-17T10:19:36.561Z,21.92
2022-10-17T10:20:36.567Z,21.96
2022-10-17T10:21:40.791Z,21.93
2022-10-17T10:22:37.040Z,21.93
2022-10-17T10:23:36.554Z,22.02
2022-10-17T10:24:36.803Z,22.09
2022-10-17T10:25:36.813Z,22.12
2022-10-17T10:26:36.790Z,22.12
2022-10-17T10:27:37.569Z,22.08
2022-10-17T10:28:37.027Z,22.16
2022-10-17T10:29:36.860Z,22.24
2022-10-17T10:30:42.539Z,22.23
2022-10-17T10:31:36.546Z,22.29
2022-10-17T10:32:37.169Z,22.3
2022-10-17T10:33:39.350Z,22.29
2022-10-17T10:34:36.546Z,22.3
2022-10-17T10:35:36.774Z,22.33
2022-10-17T10:37:37.523Z,22.33
2022-10-17T10:38:36.506Z,22.41
2022-10-17T10:39:36.768Z,22.48
2022-10-17T10:40:36.747Z,22.41
2022-10-17T10:41:36.499Z,22.52
2022-10-17T10:42:36.751Z,22.55
2022-10-17T10:43:36.486Z,22.55
2022-10-17T10:44:36.739Z,22.6
2022-10-17T10:45:53.900Z,22.64
2022-10-17T10:46:36.736Z,22.52
2022-10-17T10:47:37.189Z,22.59
2022-10-17T10:48:36.475Z,22.69
2022-10-17T10:49:36.742Z,22.63
2022-10-17T10:50:36.211Z,22.64
2022-10-17T10:51:37.264Z,22.71
2022-10-17T10:52:36.213Z,22.76
2022-10-17T10:53:39.988Z,22.75
2022-10-17T10:54:36.604Z,22.73
2022-10-17T10:55:36.461Z,22.84
2022-10-17T10:56:36.458Z,22.79
2022-10-17T10:57:36.790Z,22.79
2022-10-17T10:58:41.779Z,22.73
2022-10-17T10:59:36.708Z,22.75
2022-10-17T11:00:36.627Z,22.75
2022-10-17T11:01:36.768Z,22.63
2022-10-17T11:02:36.437Z,22.73
2022-10-17T11:03:36.419Z,22.79
2022-10-17T11:04:36.690Z,22.76
2022-10-17T11:05:36.428Z,22.79
2022-10-17T11:06:36.428Z,22.73
2022-10-17T11:07:37.258Z,22.81
2022-10-17T11:08:36.680Z,22.85
2022-10-17T11:09:38.153Z,22.86
2022-10-17T11:10:36.423Z,23.06
2022-10-17T11:11:36.681Z,23.03
2022-10-17T11:12:36.362Z,23
2022-10-17T11:13:36.409Z,23.14
2022-10-17T11:14:36.695Z,23.15
2022-10-17T11:15:36.662Z,23.12
2022-10-17T11:16:36.660Z,23.26
2022-10-17T11:17:37.450Z,23.24
2022-10-17T11:18:36.654Z,23.25
2022-10-17T11:19:36.406Z,23.29
2022-10-17T11:20:36.736Z,23.28
2022-10-17T11:21:36.580Z,23.37
2022-10-17T11:22:38.523Z,23.41
2022-10-17T11:23:36.400Z,23.41
2022-10-17T11:24:36.476Z,23.34
2022-10-17T11:25:36.642Z,23.28
2022-10-17T11:26:36.656Z,23.32
2022-10-17T11:27:36.393Z,23.35
2022-10-17T11:28:36.594Z,23.34
2022-10-17T11:29:36.634Z,23.42
2022-10-17T11:30:36.870Z,23.37
2022-10-17T11:31:36.391Z,23.37
2022-10-17T11:32:36.619Z,23.35
2022-10-17T11:33:36.695Z,23.25
2022-10-17T11:34:36.370Z,23.32
2022-10-17T11:35:36.115Z,23.29
2022-10-17T11:36:36.371Z,23.28
2022-10-17T11:37:36.370Z,23.24
2022-10-17T11:38:36.362Z,23.32
2022-10-17T11:39:36.753Z,23.21
2022-10-17T11:40:36.640Z,23.24
2022-10-17T11:41:36.611Z,23.21
2022-10-17T11:42:36.948Z,23.21
2022-10-17T11:43:36.608Z,23.24
2022-10-17T11:44:36.378Z,23.21
2022-10-17T11:45:36.351Z,23.24
2022-10-17T11:46:36.344Z,23.24
2022-10-17T11:47:36.596Z,23.21
2022-10-17T11:48:36.351Z,23.14
2022-10-17T11:49:45.222Z,23.15
2022-10-17T11:52:37.620Z,23.03
2022-10-17T11:53:16.141Z,23.01
2022-10-17T11:54:15.950Z,23.06
2022-10-17T11:55:15.877Z,23.01
2022-10-17T11:56:15.876Z,22.99
2022-10-17T11:57:19.001Z,22.94
2022-10-17T11:58:15.908Z,22.92
2022-10-17T11:59:15.871Z,22.96
2022-10-17T12:00:16.129Z,22.99
2022-10-17T12:01:15.609Z,22.91
2022-10-17T12:02:15.609Z,22.99
2022-10-17T12:03:15.870Z,22.88
2022-10-17T12:04:16.356Z,22.91
2022-10-17T12:05:16.201Z,22.88
2022-10-17T12:06:15.601Z,22.75
2022-10-17T12:07:16.121Z,22.73
2022-10-17T12:08:15.600Z,22.73
2022-10-17T12:09:16.120Z,22.78
2022-10-17T12:10:15.594Z,22.63
2022-10-17T12:11:15.869Z,22.64
2022-10-17T12:12:16.112Z,22.55
2022-10-17T12:13:16.107Z,22.67
2022-10-17T12:14:15.847Z,22.63
2022-10-17T12:15:16.100Z,22.54
2022-10-17T12:16:20.489Z,22.6
2022-10-17T12:17:15.847Z,22.64
2022-10-17T12:18:16.414Z,22.54
2022-10-17T12:19:15.836Z,22.57
2022-10-17T12:20:15.826Z,22.55
2022-10-17T12:21:16.161Z,22.52
2022-10-17T12:22:15.575Z,22.55
2022-10-17T12:23:16.085Z,22.55
2022-10-17T12:24:21.053Z,22.6
2022-10-17T12:25:16.085Z,22.52
2022-10-17T12:26:15.824Z,22.55
2022-10-17T12:27:15.811Z,22.55
2022-10-17T12:28:16.071Z,22.57
2022-10-17T12:29:15.810Z,22.55
2022-10-17T12:30:16.079Z,22.52
2022-10-17T12:31:15.818Z,22.48
2022-10-17T12:32:15.802Z,22.55
2022-10-17T12:33:16.060Z,22.57
2022-10-17T12:34:15.807Z,22.52
2022-10-17T12:35:15.804Z,22.48
2022-10-17T12:36:15.800Z,22.44
2022-10-17T12:37:16.213Z,22.44
2022-10-17T12:38:16.054Z,22.49
2022-10-17T12:39:15.793Z,22.41
2022-10-17T12:40:16.044Z,22.38
2022-10-17T12:41:16.168Z,22.36
2022-10-17T12:42:15.788Z,22.34
2022-10-17T12:43:15.572Z,22.34
2022-10-17T12:44:16.743Z,22.36
2022-10-17T12:45:15.777Z,22.34
2022-10-17T12:46:15.780Z,22.39
2022-10-17T12:47:16.100Z,22.34
2022-10-17T12:48:16.026Z,22.31
2022-10-17T12:49:15.772Z,22.36
2022-10-17T12:50:15.528Z,22.33
2022-10-17T12:51:40.163Z,22.33
2022-10-17T12:52:15.767Z,22.45
2022-10-17T12:53:21.789Z,22.41
2022-10-17T12:54:15.511Z,22.36
2022-10-17T12:55:18.004Z,22.42
2022-10-17T12:56:15.755Z,22.46
2022-10-17T12:57:16.051Z,22.42
2022-10-17T12:58:16.026Z,22.38
2022-10-17T12:59:15.751Z,22.44
2022-10-17T13:00:16.008Z,22.3
2022-10-17T13:01:29.021Z,22.44
2022-10-17T13:02:15.772Z,22.45
2022-10-17T13:03:15.740Z,22.46
2022-10-17T13:04:15.735Z,22.48
2022-10-17T13:05:15.493Z,22.55
2022-10-17T13:06:16.008Z,22.63
2022-10-17T13:07:15.994Z,22.63
2022-10-17T13:08:15.728Z,22.73
2022-10-17T13:09:16.082Z,22.84
2022-10-17T13:10:19.245Z,22.85
2022-10-17T13:11:15.727Z,23.06
2022-10-17T13:12:15.462Z,23
2022-10-17T13:13:16.517Z,23.14
2022-10-17T13:14:17.178Z,23.09
2022-10-17T13:15:16.054Z,23.19
2022-10-17T13:16:16.253Z,23.24
2022-10-17T13:17:16.605Z,23.22
2022-10-17T13:18:16.258Z,23.29
2022-10-17T13:19:16.258Z,23.28
2022-10-17T13:20:16.522Z,23.41
2022-10-17T13:21:16.249Z,23.47
2022-10-17T13:22:16.250Z,23.48